createdAt,value
2019-05-23T00:02:27.588Z,2.10
2019-05-23T00:05:01.084Z,2.23
2019-05-23T00:07:30.677Z,2.43
2019-05-23T00:10:01.754Z,2.30
2019-05-23T00:12:35.547Z,2.20
2019-05-23T00:15:08.795Z,2.33
2019-05-23T00:17:37.412Z,2.23
2019-05-23T00:20:07.812Z,2.03
2019-05-23T00:22:37.230Z,2.07
2019-05-23T00:25:07.884Z,2.07
2019-05-23T00:27:36.580Z,1.90
2019-05-23T00:30:09.053Z,2.40
2019-05-23T00:32:47.623Z,1.90
2019-05-23T00:35:17.618Z,1.90
2019-05-23T00:37:47.396Z,2.10
2019-05-23T00:40:17.018Z,1.90
2019-05-23T00:42:45.853Z,2.70
2019-05-23T00:45:15.592Z,2.07
2019-05-23T00:47:44.928Z,2.27
2019-05-23T00:50:16.580Z,1.90
2019-05-23T00:52:45.873Z,2.20
2019-05-23T00:55:16.514Z,1.93
2019-05-23T00:57:45.387Z,2.00
2019-05-23T01:00:18.565Z,2.17
2019-05-23T01:02:48.247Z,1.83
2019-05-23T01:05:16.879Z,2.10
2019-05-23T01:07:45.521Z,1.93
2019-05-23T01:10:16.221Z,2.10
2019-05-23T01:12:45.027Z,2.00
2019-05-23T01:15:14.773Z,2.40
2019-05-23T01:17:43.584Z,2.37
2019-05-23T01:20:14.444Z,2.30
2019-05-23T01:22:43.993Z,2.10
2019-05-23T01:25:14.297Z,2.20
2019-05-23T01:27:44.614Z,2.43
2019-05-23T01:30:15.888Z,2.50
2019-05-23T01:32:58.219Z,2.70
2019-05-23T01:35:27.922Z,2.60
2019-05-23T01:37:56.819Z,2.97
2019-05-23T01:40:25.773Z,4.07
2019-05-23T01:42:55.567Z,4.00
2019-05-23T01:45:24.967Z,4.13
2019-05-23T01:47:53.999Z,4.30
2019-05-23T01:50:26.087Z,4.13
2019-05-23T01:52:55.085Z,4.17
2019-05-23T01:55:25.295Z,3.90
2019-05-23T01:57:54.749Z,4.07
2019-05-23T02:00:26.214Z,4.07
2019-05-23T02:02:56.120Z,4.23
2019-05-23T02:05:25.828Z,4.57
2019-05-23T02:07:54.920Z,4.40
2019-05-23T02:10:24.533Z,3.67
2019-05-23T02:12:53.527Z,3.83
2019-05-23T02:15:22.436Z,3.90
2019-05-23T02:17:51.425Z,3.90
2019-05-23T02:20:20.420Z,4.20
2019-05-23T02:22:49.170Z,4.43
2019-05-23T02:25:21.535Z,4.00
2019-05-23T02:27:50.995Z,3.80
2019-05-23T02:30:33.737Z,3.80
2019-05-23T02:32:53.283Z,3.37
2019-05-23T02:35:22.747Z,2.80
2019-05-23T02:38:09.043Z,2.23
2019-05-23T02:40:45.767Z,2.90
2019-05-23T02:43:21.210Z,2.40
2019-05-23T02:45:53.185Z,2.43
2019-05-23T02:48:24.329Z,2.03
2019-05-23T02:51:05.008Z,2.50
2019-05-23T02:53:37.469Z,3.43
2019-05-23T02:56:11.959Z,2.90
2019-05-23T02:59:01.764Z,2.60
2019-05-23T03:02:01.034Z,2.93
2019-05-23T03:04:35.133Z,3.23
2019-05-23T03:07:04.355Z,2.80
2019-05-23T03:09:34.258Z,2.97
2019-05-23T03:12:05.057Z,3.00
2019-05-23T03:14:36.590Z,2.83
2019-05-23T03:17:08.410Z,3.00
2019-05-23T03:19:43.380Z,2.63
2019-05-23T03:22:31.271Z,2.57
2019-05-23T03:25:03.579Z,2.90
2019-05-23T03:27:35.596Z,3.97
2019-05-23T03:30:08.669Z,3.23
2019-05-23T03:32:45.742Z,5.90
2019-05-23T03:35:16.494Z,3.37
2019-05-23T03:37:46.021Z,3.17
2019-05-23T03:40:18.920Z,3.03
2019-05-23T03:42:48.763Z,3.10
2019-05-23T03:45:27.012Z,2.97
2019-05-23T03:47:56.080Z,3.40
2019-05-23T03:50:26.646Z,2.30
2019-05-23T03:52:58.044Z,2.90
2019-05-23T03:55:29.592Z,2.93
2019-05-23T03:58:00.937Z,2.40
2019-05-23T04:00:37.399Z,2.80
2019-05-23T04:03:09.180Z,2.60
2019-05-23T04:05:38.912Z,2.37
2019-05-23T04:08:07.992Z,2.67
2019-05-23T04:10:36.857Z,2.60
2019-05-23T04:13:08.182Z,2.90
2019-05-23T04:15:38.895Z,3.63
2019-05-23T04:18:09.159Z,3.67
2019-05-23T04:20:42.236Z,3.53
2019-05-23T04:23:11.233Z,3.50
2019-05-23T04:25:40.885Z,3.83
2019-05-23T04:30:34.477Z,3.80
2019-05-23T04:33:03.694Z,3.90
2019-05-23T04:35:32.314Z,4.10
2019-05-23T04:38:01.182Z,4.00
2019-05-23T04:40:29.973Z,3.80
2019-05-23T04:42:58.609Z,4.57
2019-05-23T04:45:28.933Z,4.00
2019-05-23T04:47:57.536Z,4.27
2019-05-23T04:50:26.546Z,4.40
2019-05-23T04:52:55.254Z,5.10
2019-05-23T04:55:25.469Z,4.63
2019-05-23T04:57:54.194Z,3.87
2019-05-23T05:00:23.947Z,3.20
2019-05-23T05:02:55.618Z,3.40
2019-05-23T05:05:24.830Z,4.70
2019-05-23T05:07:53.557Z,3.37
2019-05-23T05:10:23.770Z,3.87
2019-05-23T05:12:52.483Z,3.47
2019-05-23T05:15:22.182Z,3.10
2019-05-23T05:17:50.822Z,4.20
2019-05-23T05:20:20.338Z,3.87
2019-05-23T05:22:49.393Z,4.57
2019-05-23T05:25:19.396Z,5.87
2019-05-23T05:27:48.460Z,5.40
2019-05-23T05:30:17.402Z,5.03
2019-05-23T05:32:47.014Z,6.10
2019-05-23T05:35:16.042Z,7.17
2019-05-23T05:37:44.758Z,9.83
2019-05-23T05:40:15.021Z,14.60
2019-05-23T05:42:45.789Z,11.63
2019-05-23T05:45:15.010Z,11.73
2019-05-23T05:47:43.713Z,8.77
2019-05-23T05:50:14.310Z,8.60
2019-05-23T05:52:43.257Z,9.27
2019-05-23T05:55:13.412Z,7.40
2019-05-23T05:57:42.532Z,9.17
2019-05-23T06:00:27.726Z,7.07
2019-05-23T06:03:04.528Z,6.30
2019-05-23T06:05:44.941Z,5.47
2019-05-23T06:08:15.430Z,7.03
2019-05-23T06:10:45.425Z,6.00
2019-05-23T06:13:14.094Z,5.77
2019-05-23T06:15:43.513Z,6.13
2019-05-23T06:18:13.104Z,5.47
2019-05-23T06:20:45.222Z,5.63
2019-05-23T06:23:13.852Z,6.43
2019-05-23T06:25:42.678Z,5.63
2019-05-23T06:28:11.973Z,5.20
2019-05-23T06:30:41.879Z,5.13
2019-05-23T06:33:22.519Z,5.80
2019-05-23T06:35:41.939Z,4.87
2019-05-23T06:38:11.043Z,2.57
2019-05-23T06:40:40.955Z,3.83
2019-05-23T06:43:10.160Z,3.13
2019-05-23T06:45:40.787Z,9.70
2019-05-23T06:48:10.819Z,2.83
2019-05-23T06:50:39.527Z,3.57
2019-05-23T06:53:08.911Z,3.73
2019-05-23T06:55:37.564Z,4.40
2019-05-23T06:58:06.556Z,3.27
2019-05-23T07:00:35.312Z,4.43
2019-05-23T07:03:04.713Z,3.73
2019-05-23T07:05:35.916Z,3.80
2019-05-23T07:08:06.820Z,3.20
2019-05-23T07:10:35.748Z,3.50
2019-05-23T07:13:04.889Z,5.63
2019-05-23T07:15:33.941Z,4.20
2019-05-23T07:18:02.851Z,3.93
2019-05-23T07:20:31.728Z,4.93
2019-05-23T07:23:01.093Z,3.80
2019-05-23T07:25:30.030Z,3.47
2019-05-23T07:27:59.528Z,5.40
2019-05-23T07:30:28.588Z,3.43
2019-05-23T07:32:58.895Z,3.30
2019-05-23T07:35:27.598Z,3.33
2019-05-23T07:37:56.644Z,3.93
2019-05-23T07:40:28.078Z,6.70
2019-05-23T07:42:56.872Z,3.03
2019-05-23T07:45:27.143Z,3.10
2019-05-23T07:47:55.716Z,2.70
2019-05-23T07:50:24.454Z,2.60
2019-05-23T07:52:55.120Z,2.60
2019-05-23T07:55:34.675Z,2.60
2019-05-23T07:58:03.789Z,3.70
2019-05-23T08:00:37.298Z,2.43
2019-05-23T08:03:07.569Z,1.97
2019-05-23T08:05:36.523Z,2.30
2019-05-23T08:08:05.794Z,16.17
2019-05-23T08:10:34.779Z,3.77
2019-05-23T08:13:03.718Z,7.57
2019-05-23T08:15:32.722Z,4.03
2019-05-23T08:18:02.061Z,2.63
2019-05-23T08:20:30.957Z,4.00
2019-05-23T08:22:59.605Z,14.13
2019-05-23T08:25:28.260Z,5.80
2019-05-23T08:27:57.074Z,32.37
2019-05-23T08:30:26.079Z,4.33
2019-05-23T08:32:54.988Z,4.43
2019-05-23T08:35:23.958Z,5.20
2019-05-23T08:37:55.014Z,4.90
2019-05-23T08:40:25.575Z,2.83
2019-05-23T08:42:54.567Z,3.77
2019-05-23T08:45:23.340Z,1.97
2019-05-23T08:47:51.946Z,3.90
2019-05-23T08:50:22.194Z,6.37
2019-05-23T08:52:50.828Z,2.40
2019-05-23T08:55:21.865Z,2.70
2019-05-23T08:57:50.959Z,3.20
2019-05-23T09:00:20.699Z,2.70
2019-05-23T09:02:51.866Z,3.80
2019-05-23T09:05:21.610Z,8.63
2019-05-23T09:07:50.606Z,2.83
2019-05-23T09:10:20.233Z,3.37
2019-05-23T09:12:49.335Z,6.20
2019-05-23T09:15:17.974Z,4.13
2019-05-23T09:17:52.973Z,2.00
2019-05-23T09:20:17.471Z,2.33
2019-05-23T09:22:46.425Z,2.93
2019-05-23T09:25:16.040Z,3.27
2019-05-23T09:27:45.543Z,2.13
2019-05-23T09:30:15.341Z,2.50
2019-05-23T09:32:44.087Z,3.30
2019-05-23T09:35:20.923Z,2.30
2019-05-23T09:37:45.039Z,2.40
2019-05-23T09:40:14.437Z,3.83
2019-05-23T09:42:42.993Z,3.67
2019-05-23T09:45:12.965Z,2.30
2019-05-23T09:47:41.861Z,2.07
2019-05-23T09:50:13.921Z,2.70
2019-05-23T09:52:42.530Z,2.77
2019-05-23T09:55:12.522Z,2.40
2019-05-23T09:57:41.482Z,4.33
2019-05-23T10:00:12.777Z,2.10
2019-05-23T10:02:41.605Z,1.70
2019-05-23T10:05:12.253Z,1.67
2019-05-23T10:07:41.110Z,2.77
2019-05-23T10:10:10.707Z,1.73
2019-05-23T10:12:39.338Z,2.00
2019-05-23T10:15:11.914Z,1.87
2019-05-23T10:17:40.571Z,1.67
2019-05-23T10:20:09.715Z,1.60
2019-05-23T10:22:38.518Z,2.67
2019-05-23T10:25:07.992Z,2.67
2019-05-23T10:27:36.685Z,1.40
2019-05-23T10:30:10.533Z,2.10
2019-05-23T10:32:39.172Z,1.50
2019-05-23T10:35:08.290Z,1.97
2019-05-23T10:37:36.911Z,2.33
2019-05-23T10:40:07.651Z,3.50
2019-05-23T10:42:38.166Z,3.20
2019-05-23T10:45:07.559Z,2.57
2019-05-23T10:47:36.194Z,7.47
2019-05-23T10:50:08.997Z,4.17
2019-05-23T10:52:37.811Z,2.23
2019-05-23T10:55:06.656Z,1.90
2019-05-23T10:57:35.292Z,2.00
2019-05-23T11:00:06.248Z,2.03
2019-05-23T11:02:36.479Z,2.10
2019-05-23T11:05:12.777Z,1.90
2019-05-23T11:07:38.291Z,2.07
2019-05-23T11:10:07.799Z,3.83
2019-05-23T11:12:37.328Z,1.60
2019-05-23T11:15:09.475Z,2.80
2019-05-23T11:17:38.282Z,5.47
2019-05-23T11:20:09.064Z,2.47
2019-05-23T11:22:37.815Z,1.70
2019-05-23T11:25:08.176Z,1.80
2019-05-23T11:27:37.097Z,4.83
2019-05-23T11:30:11.365Z,2.70
2019-05-23T11:32:39.992Z,3.17
2019-05-23T11:35:08.739Z,1.73
2019-05-23T11:37:37.353Z,1.70
2019-05-23T11:40:07.899Z,1.73
2019-05-23T11:42:36.821Z,3.77
2019-05-23T11:45:07.657Z,1.63
2019-05-23T11:47:36.484Z,3.60
2019-05-23T11:50:06.739Z,2.73
2019-05-23T11:52:35.552Z,2.00
2019-05-23T11:55:06.515Z,2.70
2019-05-23T11:57:37.829Z,1.80
2019-05-23T12:00:10.845Z,1.80
2019-05-23T12:02:44.315Z,2.70
2019-05-23T12:05:14.922Z,1.90
2019-05-23T12:07:43.591Z,1.77
2019-05-23T12:10:13.504Z,1.60
2019-05-23T12:12:42.368Z,1.50
2019-05-23T12:15:14.036Z,2.30
2019-05-23T12:17:42.739Z,1.50
2019-05-23T12:20:11.952Z,1.50
2019-05-23T12:22:41.398Z,1.67
2019-05-23T12:25:22.005Z,2.10
2019-05-23T12:27:42.263Z,2.27
2019-05-23T12:30:14.299Z,1.60
2019-05-23T12:32:42.951Z,1.50
2019-05-23T12:35:12.397Z,1.63
2019-05-23T12:37:41.161Z,1.80
2019-05-23T12:40:12.121Z,1.70
2019-05-23T12:42:40.766Z,2.63
2019-05-23T12:45:12.359Z,2.20
2019-05-23T12:47:51.605Z,1.80
2019-05-23T12:50:22.499Z,2.60
2019-05-23T12:52:51.141Z,1.77
2019-05-23T12:55:19.781Z,2.00
2019-05-23T12:57:48.468Z,2.43
2019-05-23T13:00:35.555Z,1.80
2019-05-23T13:03:04.752Z,2.90
2019-05-23T13:05:33.743Z,1.83
2019-05-23T13:08:05.961Z,2.57
2019-05-23T13:10:33.396Z,2.73
2019-05-23T13:13:02.034Z,2.13
2019-05-23T13:15:31.330Z,2.53
2019-05-23T13:17:59.958Z,2.33
2019-05-23T13:20:28.861Z,4.63
2019-05-23T13:22:57.425Z,2.43
2019-05-23T13:25:27.519Z,3.33
2019-05-23T13:27:58.840Z,2.53
2019-05-23T13:30:28.297Z,2.83
2019-05-23T13:32:57.065Z,2.70
2019-05-23T13:35:26.164Z,2.63
2019-05-23T13:37:54.903Z,2.50
2019-05-23T13:40:23.583Z,3.20
2019-05-23T13:42:52.243Z,3.00
2019-05-23T13:45:21.252Z,2.70
2019-05-23T13:47:50.067Z,2.77
2019-05-23T13:50:20.461Z,2.80
2019-05-23T13:52:49.155Z,2.97
2019-05-23T13:55:17.880Z,3.10
2019-05-23T13:57:46.559Z,2.80
2019-05-23T14:00:16.603Z,3.40
2019-05-23T14:02:45.496Z,3.27
2019-05-23T14:05:18.697Z,2.80
2019-05-23T14:07:45.227Z,3.03
2019-05-23T14:10:14.289Z,3.20
2019-05-23T14:12:44.090Z,3.60
2019-05-23T14:15:14.458Z,3.50
2019-05-23T14:17:46.988Z,3.10
2019-05-23T14:20:16.427Z,2.73
2019-05-23T14:23:02.505Z,3.10
2019-05-23T14:25:32.200Z,3.00
2019-05-23T14:28:02.545Z,3.13
2019-05-23T14:30:38.876Z,3.13
2019-05-23T14:33:12.322Z,3.90
2019-05-23T14:35:45.441Z,3.60
2019-05-23T14:38:29.618Z,3.23
2019-05-23T14:40:46.058Z,3.17
2019-05-23T14:43:16.405Z,3.67
2019-05-23T14:46:01.641Z,4.33
2019-05-23T14:48:32.097Z,4.20
2019-05-23T14:51:08.170Z,4.40
2019-05-23T14:53:41.137Z,3.70
2019-05-23T14:56:10.112Z,3.80
2019-05-23T14:58:38.727Z,4.00
2019-05-23T15:01:08.999Z,3.87
2019-05-23T15:03:37.792Z,3.03
2019-05-23T15:06:06.518Z,3.83
2019-05-23T15:08:50.534Z,3.30
2019-05-23T15:11:06.029Z,4.73
2019-05-23T15:13:34.654Z,3.37
2019-05-23T15:16:03.873Z,5.60
2019-05-23T15:18:32.525Z,3.67
2019-05-23T15:21:01.147Z,3.60
2019-05-23T15:23:29.872Z,3.40
2019-05-23T15:25:58.599Z,4.00
2019-05-23T15:28:27.232Z,3.93
2019-05-23T15:30:55.906Z,3.67
2019-05-23T15:33:24.505Z,7.10
2019-05-23T15:35:54.100Z,3.80
2019-05-23T15:38:22.757Z,8.57
2019-05-23T15:40:51.753Z,3.83
2019-05-23T15:43:20.445Z,4.23
2019-05-23T15:45:49.174Z,3.77
2019-05-23T15:48:17.913Z,3.93
2019-05-23T15:50:48.192Z,3.90
2019-05-23T15:53:36.429Z,4.33
2019-05-23T15:56:28.066Z,7.17
2019-05-23T15:59:10.290Z,4.23
2019-05-23T16:01:46.348Z,3.50
2019-05-23T16:04:22.644Z,3.50
2019-05-23T16:06:51.580Z,3.57
2019-05-23T16:09:29.322Z,3.10
2019-05-23T16:11:51.464Z,3.20
2019-05-23T16:14:22.271Z,2.90
2019-05-23T16:16:55.584Z,2.43
2019-05-23T16:19:22.055Z,2.60
2019-05-23T16:21:50.691Z,2.60
2019-05-23T16:24:19.423Z,2.87
2019-05-23T16:26:48.165Z,2.90
2019-05-23T16:29:17.180Z,3.10
2019-05-23T16:31:45.824Z,2.80
2019-05-23T16:34:14.456Z,2.90
2019-05-23T16:36:43.291Z,2.83
2019-05-23T16:39:12.002Z,3.13
2019-05-23T16:41:40.622Z,3.13
2019-05-23T16:44:09.232Z,2.80
2019-05-23T16:46:37.848Z,3.27
2019-05-23T16:49:06.695Z,3.30
2019-05-23T16:51:35.410Z,3.10
2019-05-23T16:54:04.449Z,3.10
2019-05-23T16:56:37.628Z,2.87
2019-05-23T16:59:13.851Z,3.70
2019-05-23T17:01:55.497Z,3.23
2019-05-23T17:04:19.296Z,2.90
2019-05-23T17:07:02.983Z,3.37
2019-05-23T17:09:42.083Z,2.90
2019-05-23T17:12:28.858Z,3.60
2019-05-23T17:14:59.133Z,3.13
2019-05-23T17:18:00.803Z,3.37
2019-05-23T17:20:19.585Z,3.47
2019-05-23T17:22:46.900Z,3.40
2019-05-23T17:25:23.524Z,3.53
2019-05-23T17:27:59.868Z,3.90
2019-05-23T17:30:38.868Z,3.63
2019-05-23T17:33:08.482Z,3.63
2019-05-23T17:35:37.299Z,3.27
2019-05-23T17:38:06.054Z,4.70
2019-05-23T17:40:37.628Z,6.83
2019-05-23T17:43:06.266Z,4.00
2019-05-23T17:45:43.938Z,5.90
2019-05-23T17:48:12.911Z,5.00
2019-05-23T17:50:43.572Z,5.73
2019-05-23T17:53:15.295Z,7.70
2019-05-23T17:55:46.184Z,8.90
2019-05-23T17:58:17.443Z,13.13
2019-05-23T18:00:51.412Z,7.50
2019-05-23T18:03:22.080Z,5.57
2019-05-23T18:05:53.277Z,6.20
2019-05-23T18:08:22.006Z,6.33
2019-05-23T18:10:51.718Z,6.60
2019-05-23T18:13:23.258Z,6.07
2019-05-23T18:15:54.694Z,8.33
2019-05-23T18:18:23.903Z,5.60
2019-05-23T18:20:52.950Z,10.00
2019-05-23T18:23:21.934Z,6.57
2019-05-23T18:25:51.640Z,6.20
2019-05-23T18:28:21.046Z,9.07
2019-05-23T18:31:00.739Z,6.70
2019-05-23T18:33:29.862Z,14.80
2019-05-23T18:35:58.918Z,7.10
2019-05-23T18:38:27.703Z,6.07
2019-05-23T18:41:04.135Z,6.77
2019-05-23T18:43:27.162Z,9.30
2019-05-23T18:45:57.448Z,7.87
2019-05-23T18:48:31.031Z,6.30
2019-05-23T18:51:01.222Z,7.37
2019-05-23T18:53:31.670Z,5.90
2019-05-23T18:56:02.991Z,5.20
2019-05-23T18:58:33.272Z,5.70
2019-05-23T19:01:07.117Z,5.83
2019-05-23T19:03:35.822Z,5.27
2019-05-23T19:06:04.766Z,6.87
2019-05-23T19:08:34.171Z,8.90
2019-05-23T19:11:17.807Z,6.50
2019-05-23T19:13:34.873Z,7.33
2019-05-23T19:16:06.189Z,6.63
2019-05-23T19:18:36.471Z,7.50
2019-05-23T19:21:09.498Z,7.03
2019-05-23T19:23:39.816Z,6.97
2019-05-23T19:26:08.887Z,6.43
2019-05-23T19:28:38.084Z,7.10
2019-05-23T19:31:06.839Z,7.60
2019-05-23T19:33:37.423Z,7.87
2019-05-23T19:36:08.421Z,6.20
2019-05-23T19:38:37.359Z,9.47
2019-05-23T19:41:08.567Z,7.47
2019-05-23T19:43:37.810Z,7.93
2019-05-23T19:46:06.520Z,6.67
2019-05-23T19:48:36.706Z,6.93
2019-05-23T19:51:07.849Z,6.40
2019-05-23T19:53:39.866Z,6.70
2019-05-23T19:56:08.903Z,6.70
2019-05-23T19:58:37.678Z,12.67
2019-05-23T20:01:07.218Z,14.60
2019-05-23T20:03:42.183Z,17.43
2019-05-23T20:06:11.899Z,7.37
2019-05-23T20:08:40.542Z,9.93
2019-05-23T20:11:09.422Z,6.80
2019-05-23T20:13:38.491Z,14.40
2019-05-23T20:16:07.671Z,15.87
2019-05-23T20:18:36.644Z,11.37
2019-05-23T20:21:05.563Z,7.37
2019-05-23T20:23:34.203Z,10.10
2019-05-23T20:26:07.683Z,18.63
2019-05-23T20:28:34.639Z,10.13
2019-05-23T20:31:04.131Z,7.47
2019-05-23T20:33:33.548Z,10.10
2019-05-23T20:36:03.912Z,6.73
2019-05-23T20:38:32.555Z,6.37
2019-05-23T20:41:01.360Z,8.87
2019-05-23T20:43:30.046Z,15.27
2019-05-23T20:45:58.672Z,6.53
2019-05-23T20:48:28.002Z,19.80
2019-05-23T20:50:56.590Z,8.60
2019-05-23T20:53:25.318Z,6.53
2019-05-23T20:55:53.959Z,7.67
2019-05-23T20:58:22.656Z,10.87
2019-05-23T21:00:58.879Z,9.37
2019-05-23T21:03:28.695Z,8.77
2019-05-23T21:05:57.425Z,9.47
2019-05-23T21:08:26.080Z,11.73
2019-05-23T21:10:54.710Z,7.30
2019-05-23T21:13:23.368Z,6.93
2019-05-23T21:15:52.124Z,6.97
2019-05-23T21:18:20.780Z,6.87
2019-05-23T21:20:49.437Z,11.73
2019-05-23T21:23:18.084Z,8.87
2019-05-23T21:25:51.100Z,9.00
2019-05-23T21:28:19.794Z,5.50
2019-05-23T21:30:48.436Z,5.97
2019-05-23T21:33:17.064Z,7.10
2019-05-23T21:35:45.715Z,10.03
2019-05-23T21:38:14.349Z,7.17
2019-05-23T21:40:44.663Z,7.93
2019-05-23T21:43:13.296Z,7.40
2019-05-23T21:45:42.328Z,6.17
2019-05-23T21:48:11.022Z,9.67
2019-05-23T21:50:39.998Z,7.13
2019-05-23T21:53:09.199Z,6.90
2019-05-23T21:55:39.735Z,8.43
2019-05-23T21:58:09.975Z,9.00
2019-05-23T22:01:07.323Z,6.23
2019-05-23T22:03:48.171Z,6.90
2019-05-23T22:06:18.433Z,6.30
2019-05-23T22:08:47.529Z,6.00
2019-05-23T22:11:17.137Z,7.57
2019-05-23T22:13:45.768Z,6.13
2019-05-23T22:16:14.897Z,8.80
2019-05-23T22:18:43.733Z,6.20
2019-05-23T22:21:12.883Z,6.53
2019-05-23T22:23:41.516Z,7.40
2019-05-23T22:26:10.246Z,6.67
2019-05-23T22:28:38.996Z,7.40
2019-05-23T22:31:08.889Z,6.87
2019-05-23T22:33:54.223Z,7.57
2019-05-23T22:36:24.117Z,6.93
2019-05-23T22:38:53.027Z,6.60
2019-05-23T22:41:21.734Z,6.37
2019-05-23T22:43:50.523Z,7.60
2019-05-23T22:46:20.900Z,6.93
2019-05-23T22:48:49.459Z,7.30
2019-05-23T22:51:18.090Z,6.33
2019-05-23T22:53:46.726Z,9.83
2019-05-23T22:56:15.572Z,6.63
2019-05-23T22:58:44.401Z,6.50
2019-05-23T23:01:14.014Z,6.57
2019-05-23T23:03:42.655Z,7.00
2019-05-23T23:06:11.491Z,7.53
2019-05-23T23:08:40.109Z,8.03
2019-05-23T23:11:08.750Z,8.27
2019-05-23T23:13:38.985Z,9.80
2019-05-23T23:16:08.141Z,6.57
2019-05-23T23:18:36.778Z,8.80
2019-05-23T23:21:05.408Z,6.03
2019-05-23T23:23:34.085Z,8.23
2019-05-23T23:26:02.648Z,7.10
2019-05-23T23:28:31.417Z,7.87
2019-05-23T23:31:00.111Z,6.23
2019-05-23T23:33:28.757Z,6.03
2019-05-23T23:35:57.327Z,8.40
2019-05-23T23:38:25.955Z,6.03
2019-05-23T23:40:54.631Z,5.63
2019-05-23T23:43:23.187Z,5.73
2019-05-23T23:46:10.024Z,9.40
2019-05-23T23:48:56.844Z,5.97
2019-05-23T23:51:43.117Z,8.87
2019-05-23T23:54:30.682Z,6.23
2019-05-23T23:57:17.599Z,7.73
2019-05-23T23:59:45.798Z,6.17
